Mount Holly Springs, Pennsylvania
Current Conditions -  °F | °C
As of 11:56 AM on Tuesday 27 Jan 2015 (Local Time) from KCXY Reporting Station
Overcast Overcast  
Wind Chill: 22°   Ceiling: 9000
Heat Index: 30°   Visibility: 10mi
Dew Point: 14°   Wind: 8mph
Humidity: 51%   Direction: 360°N
Pressure: 29.83"   Gusts: NA
Location:  40.12°N, 77.19°W
Report Text: KCXY 271656Z 36007KT 10SM OVC090 M01/M10 A2983 RMK AO2 SLP106 T10111100
Loading
Personal Weather Stations






























Interactive Weather Map New forecast layout! Learn more

10-Day Weather Forecast

Advertisements
Track Severe Weather on mobile